sensor_id;sensor_type;location;lat;lon;timestamp;pressure;altitude;pressure_sealevel;temperature;humidity
13934;BME280;7039;52.168;9.866;2023-05-17T00:08:42;101102.81;;;9.08;80.67
13934;BME280;7039;52.168;9.866;2023-05-17T00:11:09;101103.03;;;9.02;80.38
13934;BME280;7039;52.168;9.866;2023-05-17T00:13:52;101121.28;;;9.00;80.85
13934;BME280;7039;52.168;9.866;2023-05-17T00:21:47;101108.19;;;9.03;80.57
13934;BME280;7039;52.168;9.866;2023-05-17T00:30:29;101108.13;;;9.05;80.46
13934;BME280;7039;52.168;9.866;2023-05-17T00:33:13;101113.97;;;9.11;80.50
13934;BME280;7039;52.168;9.866;2023-05-17T00:36:03;101110.63;;;9.08;80.81
13934;BME280;7039;52.168;9.866;2023-05-17T00:38:49;101112.19;;;9.13;80.17
13934;BME280;7039;52.168;9.866;2023-05-17T00:41:16;101112.06;;;9.16;80.49
13934;BME280;7039;52.168;9.866;2023-05-17T00:43:42;101118.06;;;9.18;80.58
13934;BME280;7039;52.168;9.866;2023-05-17T00:46:10;101113.88;;;9.14;80.69
13934;BME280;7039;52.168;9.866;2023-05-17T00:48:37;101109.28;;;9.23;80.10
13934;BME280;7039;52.168;9.866;2023-05-17T00:51:04;101111.94;;;9.19;80.66
13934;BME280;7039;52.168;9.866;2023-05-17T00:53:31;101117.63;;;9.06;81.06
13934;BME280;7039;52.168;9.866;2023-05-17T00:55:59;101116.75;;;9.07;81.22
13934;BME280;7039;52.168;9.866;2023-05-17T00:58:26;101119.38;;;9.05;80.93
13934;BME280;7039;52.168;9.866;2023-05-17T01:00:53;101122.69;;;9.10;81.00
13934;BME280;7039;52.168;9.866;2023-05-17T01:03:22;101115.72;;;8.86;81.55
13934;BME280;7039;52.168;9.866;2023-05-17T01:05:50;101122.78;;;9.07;81.19
13934;BME280;7039;52.168;9.866;2023-05-17T01:08:17;101122.25;;;8.97;81.45
13934;BME280;7039;52.168;9.866;2023-05-17T01:10:52;101132.94;;;9.15;81.15
13934;BME280;7039;52.168;9.866;2023-05-17T01:13:26;101128.66;;;9.14;80.99
13934;BME280;7039;52.168;9.866;2023-05-17T01:16:04;101136.59;;;9.09;81.29
13934;BME280;7039;52.168;9.866;2023-05-17T01:18:38;101121.25;;;9.02;81.52
13934;BME280;7039;52.168;9.866;2023-05-17T01:21:28;101119.00;;;8.91;82.07
13934;BME280;7039;52.168;9.866;2023-05-17T01:24:05;101123.44;;;8.87;82.35
13934;BME280;7039;52.168;9.866;2023-05-17T01:26:40;101127.19;;;8.78;83.06
13934;BME280;7039;52.168;9.866;2023-05-17T01:29:09;101117.72;;;8.76;82.97
13934;BME280;7039;52.168;9.866;2023-05-17T01:31:38;101131.47;;;8.81;83.47
13934;BME280;7039;52.168;9.866;2023-05-17T01:34:06;101125.47;;;8.79;83.24
13934;BME280;7039;52.168;9.866;2023-05-17T01:36:34;101133.84;;;8.87;83.01
13934;BME280;7039;52.168;9.866;2023-05-17T01:39:02;101140.53;;;8.94;82.83
13934;BME280;7039;52.168;9.866;2023-05-17T01:41:33;101142.31;;;8.94;83.14
13934;BME280;7039;52.168;9.866;2023-05-17T01:44:23;101138.06;;;8.91;83.40
13934;BME280;7039;52.168;9.866;2023-05-17T01:46:56;101134.28;;;9.02;83.10
13934;BME280;7039;52.168;9.866;2023-05-17T01:49:29;101135.75;;;9.09;82.81
13934;BME280;7039;52.168;9.866;2023-05-17T01:52:10;101143.25;;;9.18;82.64
13934;BME280;7039;52.168;9.866;2023-05-17T01:54:45;101140.25;;;9.04;83.30
13934;BME280;7039;52.168;9.866;2023-05-17T01:57:14;101147.66;;;8.89;84.22
13934;BME280;7039;52.168;9.866;2023-05-17T01:59:43;101142.59;;;8.85;84.50
13934;BME280;7039;52.168;9.866;2023-05-17T02:02:11;101147.81;;;8.85;84.77
13934;BME280;7039;52.168;9.866;2023-05-17T02:04:38;101151.66;;;8.73;85.55
13934;BME280;7039;52.168;9.866;2023-05-17T02:07:08;101154.66;;;8.87;85.08
13934;BME280;7039;52.168;9.866;2023-05-17T02:09:36;101151.31;;;8.84;85.14
13934;BME280;7039;52.168;9.866;2023-05-17T02:12:04;101149.94;;;8.72;85.97
13934;BME280;7039;52.168;9.866;2023-05-17T02:14:31;101155.91;;;8.75;85.40
13934;BME280;7039;52.168;9.866;2023-05-17T02:17:00;101157.47;;;8.81;85.73
13934;BME280;7039;52.168;9.866;2023-05-17T02:19:30;101148.06;;;8.77;85.66
13934;BME280;7039;52.168;9.866;2023-05-17T02:21:58;101154.25;;;8.73;86.18
13934;BME280;7039;52.168;9.866;2023-05-17T02:24:25;101146.44;;;8.73;86.21
13934;BME280;7039;52.168;9.866;2023-05-17T02:26:54;101157.31;;;8.86;86.25
13934;BME280;7039;52.168;9.866;2023-05-17T02:29:21;101155.78;;;9.07;85.41
13934;BME280;7039;52.168;9.866;2023-05-17T02:31:49;101159.38;;;9.03;85.32
13934;BME280;7039;52.168;9.866;2023-05-17T02:34:17;101167.78;;;9.11;85.54
13934;BME280;7039;52.168;9.866;2023-05-17T02:36:44;101159.03;;;9.13;85.40
13934;BME280;7039;52.168;9.866;2023-05-17T02:39:11;101158.72;;;9.23;84.82
13934;BME280;7039;52.168;9.866;2023-05-17T02:41:38;101166.06;;;9.36;85.03
13934;BME280;7039;52.168;9.866;2023-05-17T02:44:05;101158.06;;;9.43;84.64
13934;BME280;7039;52.168;9.866;2023-05-17T02:46:32;101167.28;;;9.51;84.28
13934;BME280;7039;52.168;9.866;2023-05-17T02:48:59;101166.03;;;9.63;83.79
13934;BME280;7039;52.168;9.866;2023-05-17T02:51:27;101164.06;;;9.70;83.55
13934;BME280;7039;52.168;9.866;2023-05-17T02:53:54;101169.00;;;9.52;83.88
13934;BME280;7039;52.168;9.866;2023-05-17T02:56:20;101171.44;;;9.57;83.94
13934;BME280;7039;52.168;9.866;2023-05-17T02:58:47;101174.00;;;9.58;83.97
13934;BME280;7039;52.168;9.866;2023-05-17T03:01:13;101176.13;;;9.72;83.82
13934;BME280;7039;52.168;9.866;2023-05-17T03:03:40;101174.53;;;9.68;84.01
13934;BME280;7039;52.168;9.866;2023-05-17T03:06:07;101174.34;;;9.73;84.09
13934;BME280;7039;52.168;9.866;2023-05-17T03:08:35;101174.81;;;9.84;83.35
13934;BME280;7039;52.168;9.866;2023-05-17T03:11:01;101171.31;;;9.85;83.52
13934;BME280;7039;52.168;9.866;2023-05-17T03:13:28;101179.16;;;10.09;83.09
13934;BME280;7039;52.168;9.866;2023-05-17T03:15:54;101185.56;;;10.00;83.27
13934;BME280;7039;52.168;9.866;2023-05-17T03:18:21;101175.94;;;10.02;83.36
13934;BME280;7039;52.168;9.866;2023-05-17T03:20:47;101184.41;;;9.83;83.57
13934;BME280;7039;52.168;9.866;2023-05-17T03:23:14;101176.63;;;9.82;82.68
13934;BME280;7039;52.168;9.866;2023-05-17T03:25:42;101186.69;;;9.93;82.33
13934;BME280;7039;52.168;9.866;2023-05-17T03:28:11;101194.03;;;9.81;83.11
13934;BME280;7039;52.168;9.866;2023-05-17T03:30:39;101196.81;;;9.77;82.74
13934;BME280;7039;52.168;9.866;2023-05-17T03:33:06;101182.19;;;9.73;82.55
13934;BME280;7039;52.168;9.866;2023-05-17T03:35:32;101196.19;;;9.69;82.89
13934;BME280;7039;52.168;9.866;2023-05-17T03:37:59;101200.56;;;9.43;84.06
13934;BME280;7039;52.168;9.866;2023-05-17T03:40:25;101192.28;;;9.57;82.92
13934;BME280;7039;52.168;9.866;2023-05-17T03:42:53;101206.75;;;9.66;82.22
13934;BME280;7039;52.168;9.866;2023-05-17T03:45:21;101201.03;;;9.54;82.73
13934;BME280;7039;52.168;9.866;2023-05-17T03:47:48;101207.88;;;9.32;82.91
13934;BME280;7039;52.168;9.866;2023-05-17T03:50:15;101219.66;;;9.42;83.00
13934;BME280;7039;52.168;9.866;2023-05-17T03:52:43;101213.16;;;9.55;82.58
13934;BME280;7039;52.168;9.866;2023-05-17T03:55:12;101223.63;;;9.54;82.27
13934;BME280;7039;52.168;9.866;2023-05-17T03:57:42;101229.13;;;9.45;82.90
13934;BME280;7039;52.168;9.866;2023-05-17T04:00:14;101224.47;;;9.54;82.42
13934;BME280;7039;52.168;9.866;2023-05-17T04:02:50;101230.00;;;9.45;83.18
13934;BME280;7039;52.168;9.866;2023-05-17T04:05:17;101244.16;;;9.36;83.56
13934;BME280;7039;52.168;9.866;2023-05-17T04:07:43;101242.16;;;9.45;83.00
13934;BME280;7039;52.168;9.866;2023-05-17T04:10:10;101252.13;;;9.32;83.54
13934;BME280;7039;52.168;9.866;2023-05-17T04:12:37;101246.88;;;9.33;83.39
13934;BME280;7039;52.168;9.866;2023-05-17T04:15:04;101248.59;;;9.33;83.65
13934;BME280;7039;52.168;9.866;2023-05-17T04:17:32;101251.22;;;9.33;83.61
13934;BME280;7039;52.168;9.866;2023-05-17T04:19:59;101253.78;;;9.34;82.86
13934;BME280;7039;52.168;9.866;2023-05-17T04:22:26;101256.91;;;9.44;82.71
13934;BME280;7039;52.168;9.866;2023-05-17T04:24:52;101259.09;;;9.03;83.53
13934;BME280;7039;52.168;9.866;2023-05-17T04:27:19;101266.94;;;9.30;82.41
13934;BME280;7039;52.168;9.866;2023-05-17T04:29:46;101268.75;;;9.28;82.30
13934;BME280;7039;52.168;9.866;2023-05-17T04:32:13;101264.75;;;9.17;81.94
13934;BME280;7039;52.168;9.866;2023-05-17T04:34:42;101278.75;;;9.40;81.70
13934;BME280;7039;52.168;9.866;2023-05-17T04:37:08;101284.34;;;9.28;81.83
13934;BME280;7039;52.168;9.866;2023-05-17T04:39:34;101280.84;;;9.29;81.32
13934;BME280;7039;52.168;9.866;2023-05-17T04:42:01;101290.78;;;9.44;81.33
13934;BME280;7039;52.168;9.866;2023-05-17T04:44:27;101298.22;;;9.56;80.79
13934;BME280;7039;52.168;9.866;2023-05-17T04:46:54;101301.94;;;9.48;80.88
13934;BME280;7039;52.168;9.866;2023-05-17T04:49:20;101298.25;;;9.55;80.48
13934;BME280;7039;52.168;9.866;2023-05-17T04:51:51;101299.84;;;9.59;80.23
13934;BME280;7039;52.168;9.866;2023-05-17T04:54:17;101310.28;;;9.59;80.35
13934;BME280;7039;52.168;9.866;2023-05-17T04:56:44;101311.31;;;9.53;79.59
13934;BME280;7039;52.168;9.866;2023-05-17T04:59:10;101309.63;;;9.52;79.65
13934;BME280;7039;52.168;9.866;2023-05-17T05:01:37;101316.88;;;9.69;79.62
13934;BME280;7039;52.168;9.866;2023-05-17T05:04:03;101319.38;;;9.46;79.37
13934;BME280;7039;52.168;9.866;2023-05-17T05:06:31;101321.38;;;9.64;79.08
13934;BME280;7039;52.168;9.866;2023-05-17T05:08:59;101321.28;;;9.40;79.38
13934;BME280;7039;52.168;9.866;2023-05-17T05:11:25;101330.16;;;9.61;78.71
13934;BME280;7039;52.168;9.866;2023-05-17T05:13:52;101320.50;;;9.65;78.51
13934;BME280;7039;52.168;9.866;2023-05-17T05:16:18;101326.44;;;9.69;78.40
13934;BME280;7039;52.168;9.866;2023-05-17T05:18:45;101334.59;;;9.58;78.22
13934;BME280;7039;52.168;9.866;2023-05-17T05:21:11;101334.16;;;9.72;78.14
13934;BME280;7039;52.168;9.866;2023-05-17T05:23:38;101339.81;;;9.85;77.61
13934;BME280;7039;52.168;9.866;2023-05-17T05:26:05;101332.84;;;9.85;77.38
13934;BME280;7039;52.168;9.866;2023-05-17T05:28:32;101343.03;;;9.66;78.09
13934;BME280;7039;52.168;9.866;2023-05-17T05:30:59;101339.50;;;9.67;77.80
13934;BME280;7039;52.168;9.866;2023-05-17T05:33:25;101344.63;;;9.70;78.14
13934;BME280;7039;52.168;9.866;2023-05-17T05:35:52;101356.94;;;9.92;77.44
13934;BME280;7039;52.168;9.866;2023-05-17T05:38:18;101354.94;;;9.73;77.64
13934;BME280;7039;52.168;9.866;2023-05-17T05:40:45;101358.66;;;9.93;77.59
13934;BME280;7039;52.168;9.866;2023-05-17T05:43:13;101362.56;;;9.79;77.26
13934;BME280;7039;52.168;9.866;2023-05-17T05:45:40;101353.09;;;9.77;76.34
13934;BME280;7039;52.168;9.866;2023-05-17T05:48:10;101355.00;;;9.72;76.29
13934;BME280;7039;52.168;9.866;2023-05-17T05:50:36;101365.97;;;9.55;76.00
13934;BME280;7039;52.168;9.866;2023-05-17T05:53:03;101375.97;;;9.67;76.01
13934;BME280;7039;52.168;9.866;2023-05-17T05:55:30;101363.09;;;9.62;75.06
13934;BME280;7039;52.168;9.866;2023-05-17T05:57:56;101374.66;;;9.82;74.55
13934;BME280;7039;52.168;9.866;2023-05-17T06:00:24;101377.41;;;10.04;75.04
13934;BME280;7039;52.168;9.866;2023-05-17T06:02:52;101370.09;;;9.89;73.97
13934;BME280;7039;52.168;9.866;2023-05-17T06:05:18;101369.94;;;9.93;73.38
13934;BME280;7039;52.168;9.866;2023-05-17T06:07:45;101368.78;;;9.75;74.69
13934;BME280;7039;52.168;9.866;2023-05-17T06:10:11;101373.69;;;9.85;73.66
13934;BME280;7039;52.168;9.866;2023-05-17T06:12:38;101376.47;;;9.78;73.89
13934;BME280;7039;52.168;9.866;2023-05-17T06:15:06;101388.63;;;10.06;73.07
13934;BME280;7039;52.168;9.866;2023-05-17T06:17:33;101389.50;;;10.33;73.14
13934;BME280;7039;52.168;9.866;2023-05-17T06:20:00;101395.91;;;10.21;72.33
13934;BME280;7039;52.168;9.866;2023-05-17T06:22:27;101391.94;;;10.38;71.64
13934;BME280;7039;52.168;9.866;2023-05-17T06:24:53;101393.63;;;10.39;71.62
13934;BME280;7039;52.168;9.866;2023-05-17T06:27:19;101389.88;;;10.21;71.65
13934;BME280;7039;52.168;9.866;2023-05-17T06:29:46;101397.63;;;10.22;70.65
13934;BME280;7039;52.168;9.866;2023-05-17T06:32:12;101399.13;;;10.31;71.14
13934;BME280;7039;52.168;9.866;2023-05-17T06:34:40;101400.63;;;10.38;70.75
13934;BME280;7039;52.168;9.866;2023-05-17T06:37:07;101403.72;;;10.50;69.49
13934;BME280;7039;52.168;9.866;2023-05-17T06:39:33;101415.28;;;10.91;69.38
13934;BME280;7039;52.168;9.866;2023-05-17T06:42:00;101408.59;;;10.59;69.11
13934;BME280;7039;52.168;9.866;2023-05-17T06:44:26;101409.41;;;10.84;68.42
13934;BME280;7039;52.168;9.866;2023-05-17T06:46:53;101415.63;;;10.57;69.45
13934;BME280;7039;52.168;9.866;2023-05-17T06:49:20;101427.25;;;10.72;67.98
13934;BME280;7039;52.168;9.866;2023-05-17T06:51:48;101422.19;;;10.92;67.78
13934;BME280;7039;52.168;9.866;2023-05-17T06:54:15;101424.16;;;11.11;67.45
13934;BME280;7039;52.168;9.866;2023-05-17T06:56:43;101414.94;;;10.77;66.83
13934;BME280;7039;52.168;9.866;2023-05-17T06:59:10;101428.16;;;10.96;65.68
13934;BME280;7039;52.168;9.866;2023-05-17T07:01:36;101436.81;;;10.96;67.14
13934;BME280;7039;52.168;9.866;2023-05-17T07:04:04;101434.72;;;10.82;68.10
13934;BME280;7039;52.168;9.866;2023-05-17T07:06:30;101431.69;;;10.95;67.68
13934;BME280;7039;52.168;9.866;2023-05-17T07:08:58;101449.41;;;11.34;66.57
13934;BME280;7039;52.168;9.866;2023-05-17T07:11:25;101449.91;;;11.43;66.97
13934;BME280;7039;52.168;9.866;2023-05-17T07:13:51;101443.38;;;10.83;65.82
13934;BME280;7039;52.168;9.866;2023-05-17T07:16:17;101445.84;;;10.87;66.17
13934;BME280;7039;52.168;9.866;2023-05-17T07:18:44;101451.09;;;11.35;64.18
13934;BME280;7039;52.168;9.866;2023-05-17T07:21:10;101458.31;;;11.52;63.64
13934;BME280;7039;52.168;9.866;2023-05-17T07:23:37;101467.78;;;11.54;62.81
13934;BME280;7039;52.168;9.866;2023-05-17T07:26:05;101469.16;;;11.17;61.58
13934;BME280;7039;52.168;9.866;2023-05-17T07:28:32;101465.63;;;11.42;60.76
13934;BME280;7039;52.168;9.866;2023-05-17T07:30:58;101467.84;;;11.53;59.03
13934;BME280;7039;52.168;9.866;2023-05-17T07:33:25;101463.53;;;11.52;59.41
13934;BME280;7039;52.168;9.866;2023-05-17T07:35:52;101462.97;;;11.89;59.19
13934;BME280;7039;52.168;9.866;2023-05-17T07:38:19;101470.56;;;11.71;58.64
13934;BME280;7039;52.168;9.866;2023-05-17T07:40:45;101474.06;;;11.72;59.45
13934;BME280;7039;52.168;9.866;2023-05-17T07:43:13;101469.13;;;11.64;58.88
13934;BME280;7039;52.168;9.866;2023-05-17T07:45:39;101473.75;;;11.34;58.78
13934;BME280;7039;52.168;9.866;2023-05-17T07:48:08;101480.31;;;11.68;58.91
13934;BME280;7039;52.168;9.866;2023-05-17T07:50:34;101479.59;;;11.41;58.31
13934;BME280;7039;52.168;9.866;2023-05-17T07:53:01;101485.66;;;11.41;57.80
13934;BME280;7039;52.168;9.866;2023-05-17T07:55:27;101489.31;;;11.83;57.63
13934;BME280;7039;52.168;9.866;2023-05-17T07:57:54;101491.56;;;11.70;58.21
13934;BME280;7039;52.168;9.866;2023-05-17T08:00:22;101497.22;;;11.81;57.88
13934;BME280;7039;52.168;9.866;2023-05-17T08:02:49;101508.78;;;11.99;58.16
13934;BME280;7039;52.168;9.866;2023-05-17T08:05:16;101510.22;;;12.49;55.88
13934;BME280;7039;52.168;9.866;2023-05-17T08:07:43;101506.91;;;12.23;56.15
13934;BME280;7039;52.168;9.866;2023-05-17T08:10:10;101510.69;;;12.16;56.40
13934;BME280;7039;52.168;9.866;2023-05-17T08:12:36;101514.59;;;12.28;55.17
13934;BME280;7039;52.168;9.866;2023-05-17T08:15:03;101502.25;;;12.09;55.37
13934;BME280;7039;52.168;9.866;2023-05-17T08:17:31;101505.78;;;11.85;55.52
13934;BME280;7039;52.168;9.866;2023-05-17T08:19:58;101506.69;;;12.07;54.60
13934;BME280;7039;52.168;9.866;2023-05-17T08:22:24;101502.44;;;12.05;54.69
13934;BME280;7039;52.168;9.866;2023-05-17T08:24:51;101511.31;;;12.86;54.68
13934;BME280;7039;52.168;9.866;2023-05-17T08:27:18;101506.38;;;12.78;52.33
13934;BME280;7039;52.168;9.866;2023-05-17T08:29:44;101510.84;;;12.76;51.81
13934;BME280;7039;52.168;9.866;2023-05-17T08:32:11;101518.03;;;12.71;53.17
13934;BME280;7039;52.168;9.866;2023-05-17T08:34:38;101510.97;;;12.73;53.34
13934;BME280;7039;52.168;9.866;2023-05-17T08:37:05;101507.81;;;12.85;52.21
13934;BME280;7039;52.168;9.866;2023-05-17T08:39:32;101501.75;;;12.85;49.95
13934;BME280;7039;52.168;9.866;2023-05-17T08:41:59;101504.09;;;12.91;52.23
13934;BME280;7039;52.168;9.866;2023-05-17T08:44:27;101500.88;;;13.05;50.78
13934;BME280;7039;52.168;9.866;2023-05-17T08:46:55;101511.34;;;13.25;51.96
13934;BME280;7039;52.168;9.866;2023-05-17T08:49:24;101508.28;;;13.36;51.41
13934;BME280;7039;52.168;9.866;2023-05-17T08:51:53;101521.16;;;13.41;50.45
13934;BME280;7039;52.168;9.866;2023-05-17T08:54:21;101506.31;;;13.00;51.34
13934;BME280;7039;52.168;9.866;2023-05-17T08:56:47;101503.31;;;12.89;53.01
13934;BME280;7039;52.168;9.866;2023-05-17T08:59:16;101507.88;;;12.43;54.21
13934;BME280;7039;52.168;9.866;2023-05-17T09:01:46;101509.28;;;12.72;53.39
13934;BME280;7039;52.168;9.866;2023-05-17T09:04:15;101517.03;;;12.53;53.35
13934;BME280;7039;52.168;9.866;2023-05-17T09:06:42;101512.50;;;12.58;53.43
13934;BME280;7039;52.168;9.866;2023-05-17T09:09:10;101522.56;;;12.67;52.74
13934;BME280;7039;52.168;9.866;2023-05-17T09:11:36;101511.19;;;12.89;51.55
13934;BME280;7039;52.168;9.866;2023-05-17T09:14:04;101515.22;;;12.55;50.95
13934;BME280;7039;52.168;9.866;2023-05-17T09:16:32;101515.38;;;12.72;50.81
13934;BME280;7039;52.168;9.866;2023-05-17T09:19:00;101525.50;;;13.01;51.65
13934;BME280;7039;52.168;9.866;2023-05-17T09:21:28;101517.72;;;12.99;52.02
13934;BME280;7039;52.168;9.866;2023-05-17T09:23:55;101513.13;;;12.43;51.82
13934;BME280;7039;52.168;9.866;2023-05-17T09:26:24;101522.31;;;12.31;53.43
13934;BME280;7039;52.168;9.866;2023-05-17T09:28:51;101526.06;;;12.46;52.99
13934;BME280;7039;52.168;9.866;2023-05-17T09:31:18;101518.28;;;12.85;50.87
13934;BME280;7039;52.168;9.866;2023-05-17T09:33:45;101520.13;;;13.24;50.17
13934;BME280;7039;52.168;9.866;2023-05-17T09:36:16;101520.97;;;13.25;50.96
13934;BME280;7039;52.168;9.866;2023-05-17T09:38:51;101521.69;;;13.08;51.69
13934;BME280;7039;52.168;9.866;2023-05-17T09:41:18;101516.41;;;12.89;51.09
13934;BME280;7039;52.168;9.866;2023-05-17T09:43:45;101521.72;;;12.87;51.21
13934;BME280;7039;52.168;9.866;2023-05-17T09:46:12;101523.06;;;12.55;52.46
13934;BME280;7039;52.168;9.866;2023-05-17T09:48:40;101524.91;;;13.14;52.24
13934;BME280;7039;52.168;9.866;2023-05-17T09:51:08;101522.09;;;13.58;51.07
13934;BME280;7039;52.168;9.866;2023-05-17T09:53:34;101531.38;;;13.85;50.95
13934;BME280;7039;52.168;9.866;2023-05-17T09:56:05;101521.13;;;13.61;51.60
13934;BME280;7039;52.168;9.866;2023-05-17T09:58:32;101525.00;;;13.33;51.99
13934;BME280;7039;52.168;9.866;2023-05-17T10:01:02;101521.88;;;13.24;53.26
13934;BME280;7039;52.168;9.866;2023-05-17T10:03:30;101523.00;;;13.39;51.95
13934;BME280;7039;52.168;9.866;2023-05-17T10:05:57;101519.97;;;13.27;51.88
13934;BME280;7039;52.168;9.866;2023-05-17T10:08:28;101510.84;;;13.38;50.06
13934;BME280;7039;52.168;9.866;2023-05-17T10:10:57;101513.97;;;13.05;51.35
13934;BME280;7039;52.168;9.866;2023-05-17T10:13:29;101523.25;;;13.72;50.96
13934;BME280;7039;52.168;9.866;2023-05-17T10:16:01;101526.78;;;14.63;48.78
13934;BME280;7039;52.168;9.866;2023-05-17T10:18:28;101513.97;;;14.20;45.80
13934;BME280;7039;52.168;9.866;2023-05-17T10:20:55;101520.03;;;13.46;48.06
13934;BME280;7039;52.168;9.866;2023-05-17T10:23:23;101515.56;;;13.29;49.30
13934;BME280;7039;52.168;9.866;2023-05-17T10:25:51;101526.00;;;13.50;49.85
13934;BME280;7039;52.168;9.866;2023-05-17T10:28:18;101515.72;;;13.83;50.31
13934;BME280;7039;52.168;9.866;2023-05-17T10:30:46;101524.16;;;13.52;49.68
13934;BME280;7039;52.168;9.866;2023-05-17T10:33:16;101520.75;;;13.50;49.51
13934;BME280;7039;52.168;9.866;2023-05-17T10:35:44;101511.34;;;14.01;49.17
13934;BME280;7039;52.168;9.866;2023-05-17T10:38:12;101511.50;;;13.98;48.28
13934;BME280;7039;52.168;9.866;2023-05-17T10:40:39;101513.34;;;14.32;46.08
13934;BME280;7039;52.168;9.866;2023-05-17T10:43:08;101509.13;;;14.47;45.43
13934;BME280;7039;52.168;9.866;2023-05-17T10:45:36;101516.28;;;14.63;45.85
13934;BME280;7039;52.168;9.866;2023-05-17T10:48:04;101516.78;;;14.69;45.00
13934;BME280;7039;52.168;9.866;2023-05-17T10:50:36;101508.06;;;14.69;45.65
13934;BME280;7039;52.168;9.866;2023-05-17T10:53:07;101519.59;;;15.17;46.93
13934;BME280;7039;52.168;9.866;2023-05-17T10:55:37;101509.28;;;14.44;47.05
13934;BME280;7039;52.168;9.866;2023-05-17T10:58:12;101505.81;;;14.07;47.58
13934;BME280;7039;52.168;9.866;2023-05-17T11:00:41;101504.38;;;13.64;49.05
13934;BME280;7039;52.168;9.866;2023-05-17T11:03:15;101511.84;;;14.09;49.61
13934;BME280;7039;52.168;9.866;2023-05-17T11:05:44;101509.72;;;14.17;49.03
13934;BME280;7039;52.168;9.866;2023-05-17T11:08:31;101505.66;;;13.55;49.64
13934;BME280;7039;52.168;9.866;2023-05-17T11:11:07;101504.38;;;13.83;49.08
13934;BME280;7039;52.168;9.866;2023-05-17T11:13:42;101506.03;;;14.39;47.76
13934;BME280;7039;52.168;9.866;2023-05-17T11:16:13;101506.00;;;14.75;48.05
13934;BME280;7039;52.168;9.866;2023-05-17T11:18:47;101507.75;;;14.40;46.59
13934;BME280;7039;52.168;9.866;2023-05-17T11:21:16;101506.66;;;14.27;46.68
13934;BME280;7039;52.168;9.866;2023-05-17T11:23:44;101503.81;;;13.95;47.07
13934;BME280;7039;52.168;9.866;2023-05-17T11:26:16;101497.56;;;14.51;46.57
13934;BME280;7039;52.168;9.866;2023-05-17T11:28:46;101503.97;;;14.98;47.84
13934;BME280;7039;52.168;9.866;2023-05-17T11:31:13;101511.63;;;15.36;46.82
13934;BME280;7039;52.168;9.866;2023-05-17T11:33:41;101518.88;;;15.15;46.14
13934;BME280;7039;52.168;9.866;2023-05-17T11:36:14;101508.31;;;14.99;46.04
13934;BME280;7039;52.168;9.866;2023-05-17T11:38:42;101501.28;;;14.82;45.86
13934;BME280;7039;52.168;9.866;2023-05-17T11:41:16;101509.53;;;14.92;45.82
13934;BME280;7039;52.168;9.866;2023-05-17T11:43:47;101509.47;;;14.76;45.19
13934;BME280;7039;52.168;9.866;2023-05-17T11:46:20;101512.13;;;14.39;44.70
13934;BME280;7039;52.168;9.866;2023-05-17T11:48:49;101519.22;;;15.24;45.80
13934;BME280;7039;52.168;9.866;2023-05-17T11:51:16;101507.13;;;15.38;44.63
13934;BME280;7039;52.168;9.866;2023-05-17T11:53:45;101508.19;;;15.18;45.54
13934;BME280;7039;52.168;9.866;2023-05-17T11:56:13;101522.66;;;15.42;44.94
13934;BME280;7039;52.168;9.866;2023-05-17T11:58:40;101526.47;;;15.53;44.27
13934;BME280;7039;52.168;9.866;2023-05-17T12:01:07;101522.13;;;15.36;43.95
13934;BME280;7039;52.168;9.866;2023-05-17T12:03:34;101511.84;;;15.80;45.08
13934;BME280;7039;52.168;9.866;2023-05-17T12:06:04;101530.63;;;16.36;43.14
13934;BME280;7039;52.168;9.866;2023-05-17T12:08:31;101536.16;;;16.32;42.41
13934;BME280;7039;52.168;9.866;2023-05-17T12:10:59;101527.28;;;16.02;42.66
13934;BME280;7039;52.168;9.866;2023-05-17T12:13:27;101535.34;;;16.15;42.50
13934;BME280;7039;52.168;9.866;2023-05-17T12:15:55;101524.72;;;15.85;43.31
13934;BME280;7039;52.168;9.866;2023-05-17T12:18:22;101533.94;;;15.11;43.66
13934;BME280;7039;52.168;9.866;2023-05-17T12:20:53;101545.50;;;15.24;43.99
13934;BME280;7039;52.168;9.866;2023-05-17T12:23:25;101544.13;;;15.17;44.42
13934;BME280;7039;52.168;9.866;2023-05-17T12:26:04;101544.50;;;16.40;43.44
13934;BME280;7039;52.168;9.866;2023-05-17T12:28:32;101553.25;;;15.43;42.90
13934;BME280;7039;52.168;9.866;2023-05-17T12:30:59;101552.78;;;15.02;44.33
13934;BME280;7039;52.168;9.866;2023-05-17T12:33:30;101556.66;;;14.77;45.55
13934;BME280;7039;52.168;9.866;2023-05-17T12:35:57;101558.09;;;15.35;43.96
13934;BME280;7039;52.168;9.866;2023-05-17T12:38:24;101560.56;;;16.03;43.33
13934;BME280;7039;52.168;9.866;2023-05-17T12:40:52;101547.94;;;14.94;43.67
13934;BME280;7039;52.168;9.866;2023-05-17T12:43:22;101555.00;;;15.27;44.98
13934;BME280;7039;52.168;9.866;2023-05-17T12:45:49;101561.75;;;15.49;46.48
13934;BME280;7039;52.168;9.866;2023-05-17T12:48:15;101553.78;;;14.65;45.75
13934;BME280;7039;52.168;9.866;2023-05-17T12:50:41;101555.50;;;14.66;46.62
13934;BME280;7039;52.168;9.866;2023-05-17T12:53:10;101567.22;;;14.76;46.03
13934;BME280;7039;52.168;9.866;2023-05-17T12:55:36;101563.47;;;14.99;45.14
13934;BME280;7039;52.168;9.866;2023-05-17T12:58:03;101555.47;;;15.84;42.69
13934;BME280;7039;52.168;9.866;2023-05-17T13:00:31;101558.91;;;16.33;41.72
13934;BME280;7039;52.168;9.866;2023-05-17T13:02:57;101551.56;;;17.14;42.23
13934;BME280;7039;52.168;9.866;2023-05-17T13:05:24;101549.28;;;16.78;42.30
13934;BME280;7039;52.168;9.866;2023-05-17T13:07:50;101553.88;;;16.44;43.74
13934;BME280;7039;52.168;9.866;2023-05-17T13:10:21;101543.59;;;15.93;43.45
13934;BME280;7039;52.168;9.866;2023-05-17T13:12:56;101560.66;;;16.18;42.47
13934;BME280;7039;52.168;9.866;2023-05-17T13:15:31;101564.16;;;16.95;42.23
13934;BME280;7039;52.168;9.866;2023-05-17T13:17:58;101561.19;;;17.15;40.75
13934;BME280;7039;52.168;9.866;2023-05-17T13:20:25;101556.44;;;16.76;42.17
13934;BME280;7039;52.168;9.866;2023-05-17T13:22:53;101555.22;;;17.26;41.68
13934;BME280;7039;52.168;9.866;2023-05-17T13:25:19;101561.00;;;18.17;39.92
13934;BME280;7039;52.168;9.866;2023-05-17T13:27:46;101554.75;;;17.77;39.04
13934;BME280;7039;52.168;9.866;2023-05-17T13:30:14;101555.69;;;16.27;41.37